createdAt,value
2022-10-28T00:02:31.381Z,7.97
2022-10-28T00:05:34.893Z,8.00
2022-10-28T00:08:39.027Z,7.99
2022-10-28T00:11:41.755Z,8.03
2022-10-28T00:14:44.152Z,7.94
2022-10-28T00:17:46.555Z,7.93
2022-10-28T00:20:48.935Z,7.68
2022-10-28T00:23:51.470Z,7.58
2022-10-28T00:26:53.776Z,7.56
2022-10-28T00:29:56.956Z,7.58
2022-10-28T00:32:59.336Z,7.61
2022-10-28T00:36:29.029Z,7.57
2022-10-28T00:39:31.473Z,7.49
2022-10-28T00:42:33.844Z,7.45
2022-10-28T00:45:36.212Z,7.55
2022-10-28T00:48:41.302Z,7.58
2022-10-28T00:51:44.556Z,7.66
2022-10-28T00:54:47.595Z,7.56
2022-10-28T00:57:52.095Z,7.64
2022-10-28T01:00:55.778Z,7.76
2022-10-28T01:03:58.321Z,7.90
2022-10-28T01:07:01.912Z,8.04
2022-10-28T01:10:04.529Z,8.02
2022-10-28T01:13:14.580Z,8.02
2022-10-28T01:17:02.830Z,8.37
2022-10-28T01:20:41.777Z,8.34
2022-10-28T01:24:15.838Z,8.31
2022-10-28T01:27:44.576Z,8.35
2022-10-28T01:31:04.870Z,8.48
2022-10-28T01:34:12.621Z,8.53
2022-10-28T01:37:19.998Z,8.79
2022-10-28T01:40:43.871Z,8.77
2022-10-28T01:44:13.145Z,8.88
2022-10-28T01:47:40.329Z,9.06
2022-10-28T01:50:51.393Z,9.04
2022-10-28T01:53:55.701Z,9.06
2022-10-28T01:56:58.826Z,9.07
2022-10-28T02:00:01.898Z,9.00
2022-10-28T02:03:16.586Z,9.12
2022-10-28T02:06:21.301Z,9.11
2022-10-28T02:10:02.751Z,8.99
2022-10-28T02:13:11.797Z,8.65
2022-10-28T02:16:23.604Z,8.77
2022-10-28T02:19:37.460Z,8.90
2022-10-28T02:22:39.831Z,9.12
2022-10-28T02:25:56.252Z,8.95
2022-10-28T02:29:13.708Z,8.94
2022-10-28T02:32:20.042Z,9.10
2022-10-28T02:35:43.640Z,9.22
2022-10-28T02:38:49.100Z,9.28
2022-10-28T02:42:11.175Z,9.40
2022-10-28T02:45:19.768Z,9.36
2022-10-28T02:48:26.750Z,9.41
2022-10-28T02:51:35.046Z,9.48
2022-10-28T02:54:58.787Z,9.44
2022-10-28T02:58:01.272Z,9.49
2022-10-28T03:01:03.678Z,9.52
2022-10-28T03:04:06.380Z,9.50
2022-10-28T03:07:08.722Z,9.64
2022-10-28T03:10:11.297Z,9.65
2022-10-28T03:13:13.616Z,9.60
2022-10-28T03:16:15.967Z,9.63
2022-10-28T03:19:18.329Z,9.54
2022-10-28T03:22:20.740Z,9.62
2022-10-28T03:25:23.092Z,9.66
2022-10-28T03:28:25.424Z,9.71
2022-10-28T03:31:27.892Z,9.68
2022-10-28T03:34:30.893Z,9.66
2022-10-28T03:37:33.840Z,9.71
2022-10-28T03:40:36.967Z,9.78
2022-10-28T03:43:39.731Z,9.79
2022-10-28T03:46:42.165Z,10.21
2022-10-28T03:49:44.663Z,10.26
2022-10-28T03:52:47.121Z,10.34
2022-10-28T03:55:57.359Z,10.28
2022-10-28T03:59:00.577Z,10.41
2022-10-28T04:02:03.141Z,10.58
2022-10-28T04:05:05.890Z,10.40
2022-10-28T04:08:09.085Z,10.63
2022-10-28T04:11:12.520Z,10.58
2022-10-28T04:14:15.625Z,10.40
2022-10-28T04:17:17.969Z,10.35
2022-10-28T04:20:20.487Z,10.31
2022-10-28T04:23:22.944Z,10.31
2022-10-28T04:26:25.457Z,10.15
2022-10-28T04:29:29.222Z,10.42
2022-10-28T04:32:32.267Z,10.41
2022-10-28T04:35:34.739Z,10.43
2022-10-28T04:38:37.351Z,10.66
2022-10-28T04:41:40.046Z,10.90
2022-10-28T04:44:42.473Z,10.49
2022-10-28T04:47:44.864Z,10.51
2022-10-28T04:50:47.899Z,10.45
2022-10-28T04:53:50.855Z,10.35
2022-10-28T04:56:55.585Z,10.28
2022-10-28T04:59:58.499Z,10.52
2022-10-28T05:03:02.481Z,10.64
2022-10-28T05:06:05.293Z,10.59
2022-10-28T05:09:07.980Z,10.58
2022-10-28T05:12:10.485Z,10.64
2022-10-28T05:15:14.376Z,10.68
2022-10-28T05:18:17.157Z,10.74
2022-10-28T05:21:19.643Z,10.64
2022-10-28T05:24:22.233Z,10.66
2022-10-28T05:27:24.770Z,10.68
2022-10-28T05:30:28.074Z,10.74
2022-10-28T05:33:30.569Z,10.68
2022-10-28T05:36:33.148Z,10.77
2022-10-28T05:39:35.964Z,10.81
2022-10-28T05:42:42.590Z,10.83
2022-10-28T05:45:45.222Z,10.68
2022-10-28T05:48:47.915Z,10.72
2022-10-28T05:51:50.438Z,10.67
2022-10-28T05:54:52.855Z,10.76
2022-10-28T05:57:56.374Z,10.87
2022-10-28T06:00:59.731Z,10.84
2022-10-28T06:04:02.640Z,10.83
2022-10-28T06:07:05.353Z,11.03
2022-10-28T06:10:09.315Z,11.08
2022-10-28T06:13:15.292Z,11.07
2022-10-28T06:16:17.662Z,10.90
2022-10-28T06:19:20.098Z,10.87
2022-10-28T06:22:22.492Z,10.93
2022-10-28T06:25:25.471Z,10.84
2022-10-28T06:28:28.831Z,10.82
2022-10-28T06:31:31.939Z,10.83
2022-10-28T06:34:34.370Z,10.84
2022-10-28T06:37:36.805Z,10.64
2022-10-28T06:40:39.345Z,10.49
2022-10-28T06:43:41.719Z,10.51
2022-10-28T06:46:45.685Z,10.54
2022-10-28T06:49:49.556Z,10.52
2022-10-28T06:52:53.391Z,10.47
2022-10-28T06:55:57.146Z,10.60
2022-10-28T06:58:59.699Z,10.64
2022-10-28T07:02:02.992Z,10.62
2022-10-28T07:05:07.224Z,10.53
2022-10-28T07:08:10.139Z,11.00
2022-10-28T07:11:12.601Z,11.17
2022-10-28T07:14:15.050Z,10.93
2022-10-28T07:17:17.796Z,10.70
2022-10-28T07:20:20.826Z,11.19
2022-10-28T07:23:23.223Z,11.20
2022-10-28T07:26:26.285Z,11.34
2022-10-28T07:29:28.642Z,11.10
2022-10-28T07:32:34.992Z,11.05
2022-10-28T07:35:39.008Z,11.49
2022-10-28T07:38:43.430Z,10.93
2022-10-28T07:41:47.651Z,10.94
2022-10-28T07:44:50.107Z,10.90
2022-10-28T07:47:52.883Z,10.97
2022-10-28T07:50:55.469Z,10.87
2022-10-28T07:53:58.037Z,10.99
2022-10-28T07:57:00.468Z,10.95
2022-10-28T08:00:04.187Z,10.77
2022-10-28T08:03:12.819Z,10.82
2022-10-28T08:06:20.361Z,10.91
2022-10-28T08:09:22.760Z,11.05
2022-10-28T08:12:25.287Z,10.90
2022-10-28T08:15:28.880Z,10.97
2022-10-28T08:18:31.881Z,10.81
2022-10-28T08:21:34.333Z,11.02
2022-10-28T08:24:36.821Z,10.83
2022-10-28T08:27:40.678Z,10.80
2022-10-28T08:30:57.207Z,11.24
2022-10-28T08:34:06.492Z,11.03
2022-10-28T08:37:09.385Z,11.03
2022-10-28T08:40:14.991Z,10.95
2022-10-28T08:43:57.036Z,11.03
2022-10-28T08:47:18.624Z,11.00
2022-10-28T08:50:23.670Z,10.99
2022-10-28T08:53:29.554Z,11.10
2022-10-28T08:56:35.866Z,10.98
2022-10-28T08:59:40.474Z,11.15
2022-10-28T09:03:11.728Z,11.26
2022-10-28T09:06:14.341Z,11.37
2022-10-28T09:09:21.895Z,11.83
2022-10-28T09:12:42.685Z,11.32
2022-10-28T09:15:56.012Z,11.21
2022-10-28T09:19:04.117Z,11.25
2022-10-28T09:22:13.744Z,11.33
2022-10-28T09:25:39.549Z,11.16
2022-10-28T09:28:47.740Z,11.35
2022-10-28T09:31:57.904Z,11.83
2022-10-28T09:35:06.444Z,11.56
2022-10-28T09:38:16.348Z,11.68
2022-10-28T09:41:21.852Z,12.07
2022-10-28T09:44:39.479Z,12.13
2022-10-28T09:47:44.986Z,12.05
2022-10-28T09:50:50.592Z,12.08
2022-10-28T09:54:00.489Z,12.19
2022-10-28T09:57:03.784Z,11.90
2022-10-28T10:00:17.907Z,11.61
2022-10-28T10:03:21.439Z,11.37
2022-10-28T10:06:35.601Z,11.60
2022-10-28T10:09:39.170Z,11.30
2022-10-28T10:12:41.922Z,11.24
2022-10-28T10:15:51.455Z,10.99
2022-10-28T10:18:57.311Z,11.08
2022-10-28T10:21:59.707Z,11.11
2022-10-28T10:25:03.391Z,11.02
2022-10-28T10:28:14.919Z,11.01
2022-10-28T10:31:27.290Z,11.31
2022-10-28T10:34:30.673Z,11.76
2022-10-28T10:37:36.628Z,11.84
2022-10-28T10:40:48.954Z,11.60
2022-10-28T10:43:51.291Z,11.60
2022-10-28T10:47:04.904Z,11.78
2022-10-28T10:53:39.945Z,12.13
2022-10-28T10:56:43.017Z,12.21
2022-10-28T10:59:47.463Z,12.23
2022-10-28T11:02:53.524Z,12.28
2022-10-28T11:06:22.110Z,11.63
2022-10-28T11:09:35.557Z,11.61
2022-10-28T11:12:41.184Z,11.60
2022-10-28T11:15:43.518Z,11.67
2022-10-28T11:18:48.443Z,11.67
2022-10-28T11:22:12.528Z,11.64
2022-10-28T11:25:43.208Z,11.59
2022-10-28T11:29:01.662Z,11.44
2022-10-28T11:32:17.312Z,11.59
2022-10-28T11:35:23.786Z,11.62
2022-10-28T11:38:45.711Z,11.73
2022-10-28T11:42:02.263Z,11.71
2022-10-28T11:45:18.690Z,12.08
2022-10-28T11:48:24.087Z,12.36
2022-10-28T11:51:48.296Z,12.42
2022-10-28T11:55:04.063Z,12.51
2022-10-28T11:58:21.200Z,12.51
2022-10-28T12:01:29.868Z,12.75
2022-10-28T12:05:02.978Z,12.74
2022-10-28T12:08:27.736Z,12.99
2022-10-28T12:11:42.152Z,13.03
2022-10-28T12:14:44.512Z,13.01
2022-10-28T12:17:59.224Z,12.97
2022-10-28T12:21:17.208Z,12.87
2022-10-28T12:24:21.474Z,12.77
2022-10-28T12:27:27.812Z,12.64
2022-10-28T12:30:38.706Z,12.32
2022-10-28T12:33:45.872Z,12.42
2022-10-28T12:36:50.840Z,12.66
2022-10-28T12:40:17.377Z,12.59
2022-10-28T12:43:24.253Z,12.62
2022-10-28T12:50:16.829Z,12.75
2022-10-28T12:53:30.920Z,12.79
2022-10-28T12:56:36.979Z,12.94
2022-10-28T12:59:44.027Z,12.85
2022-10-28T13:03:01.576Z,12.77
2022-10-28T13:09:51.635Z,12.60
2022-10-28T13:13:33.099Z,12.68
2022-10-28T13:17:11.188Z,12.74
2022-10-28T13:20:19.345Z,12.79
2022-10-28T13:23:30.331Z,12.75
2022-10-28T13:26:36.728Z,12.53
2022-10-28T13:29:41.230Z,12.66
2022-10-28T13:32:44.158Z,12.55
2022-10-28T13:35:47.197Z,12.63
2022-10-28T13:38:54.727Z,12.59
2022-10-28T13:42:23.173Z,12.83
2022-10-28T13:45:44.143Z,12.93
2022-10-28T13:48:47.913Z,12.79
2022-10-28T13:51:51.968Z,12.81
2022-10-28T13:54:59.174Z,12.79
2022-10-28T13:58:04.689Z,12.80
2022-10-28T14:01:44.410Z,12.83
2022-10-28T14:05:02.490Z,12.63
2022-10-28T14:08:17.302Z,12.72
2022-10-28T14:11:24.152Z,12.72
2022-10-28T14:14:26.535Z,12.54
2022-10-28T14:17:37.357Z,12.47
2022-10-28T14:21:01.684Z,12.61
2022-10-28T14:24:04.238Z,12.55
2022-10-28T14:27:08.717Z,12.54
2022-10-28T14:30:17.243Z,12.52
2022-10-28T14:33:21.089Z,12.40
2022-10-28T14:36:38.033Z,12.55
2022-10-28T14:39:45.572Z,12.52
2022-10-28T14:43:16.013Z,12.45
2022-10-28T14:46:46.262Z,12.60
2022-10-28T14:50:00.686Z,12.45
2022-10-28T14:53:06.101Z,12.47
2022-10-28T14:56:27.886Z,12.50
2022-10-28T14:59:35.831Z,12.18
2022-10-28T15:02:38.886Z,12.25
2022-10-28T15:05:41.352Z,12.33
2022-10-28T15:08:44.203Z,12.48
2022-10-28T15:11:50.763Z,12.34
2022-10-28T15:14:58.114Z,12.59
2022-10-28T15:18:00.888Z,12.57
2022-10-28T15:21:11.116Z,12.57
2022-10-28T15:24:13.786Z,12.53
2022-10-28T15:27:16.275Z,12.47
2022-10-28T15:30:23.849Z,12.44
2022-10-28T15:33:37.034Z,12.35
2022-10-28T15:36:39.554Z,12.15
2022-10-28T15:39:41.957Z,12.15
2022-10-28T15:42:53.606Z,12.14
2022-10-28T15:46:15.439Z,12.17
2022-10-28T15:49:55.650Z,12.17
2022-10-28T15:53:07.077Z,12.10
2022-10-28T15:56:15.318Z,12.08
2022-10-28T15:59:21.696Z,11.94
2022-10-28T16:02:41.048Z,11.95
2022-10-28T16:05:44.978Z,11.94
2022-10-28T16:08:48.297Z,11.92
2022-10-28T16:11:53.345Z,11.92
2022-10-28T16:14:59.460Z,11.98
2022-10-28T16:18:01.991Z,11.93
2022-10-28T16:21:04.713Z,11.82
2022-10-28T16:24:09.159Z,11.82
2022-10-28T16:27:32.868Z,11.97
2022-10-28T16:30:35.297Z,11.99
2022-10-28T16:33:38.447Z,11.89
2022-10-28T16:36:40.779Z,11.60
2022-10-28T16:39:43.319Z,11.85
2022-10-28T16:42:48.759Z,12.01
2022-10-28T16:45:52.796Z,11.98
2022-10-28T16:48:55.181Z,11.85
2022-10-28T16:51:57.962Z,11.97
2022-10-28T16:55:00.553Z,12.02
2022-10-28T16:58:03.062Z,11.76
2022-10-28T17:01:05.838Z,11.91
2022-10-28T17:04:08.997Z,11.92
2022-10-28T17:07:16.125Z,12.03
2022-10-28T17:10:18.942Z,11.95
2022-10-28T17:13:21.449Z,11.83
2022-10-28T17:16:23.875Z,11.81
2022-10-28T17:19:26.923Z,11.67
2022-10-28T17:22:30.992Z,11.91
2022-10-28T17:25:34.268Z,11.89
2022-10-28T17:28:36.969Z,11.96
2022-10-28T17:31:39.397Z,11.86
2022-10-28T17:34:41.814Z,11.86
2022-10-28T17:37:44.269Z,11.87
2022-10-28T17:40:54.762Z,11.98
2022-10-28T17:43:57.445Z,11.95
2022-10-28T17:47:01.092Z,11.93
2022-10-28T17:50:04.075Z,11.93
2022-10-28T17:53:06.460Z,11.97
2022-10-28T17:56:09.765Z,11.77
2022-10-28T17:59:12.470Z,11.98
2022-10-28T18:02:15.047Z,12.10
2022-10-28T18:05:17.557Z,11.90
2022-10-28T18:08:20.784Z,12.03
2022-10-28T18:11:23.114Z,12.19
2022-10-28T18:14:25.584Z,11.96
2022-10-28T18:17:29.337Z,12.12
2022-10-28T18:20:32.537Z,11.94
2022-10-28T18:23:35.639Z,11.88
2022-10-28T18:26:38.814Z,12.01
2022-10-28T18:29:41.524Z,12.09
2022-10-28T18:32:43.891Z,11.91
2022-10-28T18:38:54.919Z,11.74
2022-10-28T18:41:58.805Z,11.81
2022-10-28T18:45:02.727Z,11.76
2022-10-28T18:48:06.676Z,11.77
2022-10-28T18:51:13.542Z,11.73
2022-10-28T18:54:18.079Z,11.68
2022-10-28T18:57:22.107Z,11.79
2022-10-28T19:00:24.582Z,12.04
2022-10-28T19:03:27.294Z,11.94
2022-10-28T19:06:32.610Z,12.13
2022-10-28T19:09:36.136Z,12.11
2022-10-28T19:12:42.857Z,11.89
2022-10-28T19:15:47.737Z,11.71
2022-10-28T19:18:57.317Z,11.72
2022-10-28T19:22:01.276Z,11.76
2022-10-28T19:25:04.789Z,11.80
2022-10-28T19:28:07.232Z,11.75
2022-10-28T19:31:14.175Z,11.79
2022-10-28T19:34:16.541Z,11.77
2022-10-28T19:37:19.013Z,11.72
2022-10-28T19:40:21.359Z,11.67
2022-10-28T19:43:23.813Z,11.82
2022-10-28T19:46:30.963Z,11.88
2022-10-28T19:49:39.292Z,12.14
2022-10-28T19:52:44.386Z,12.03
2022-10-28T19:55:48.929Z,11.92
2022-10-28T19:58:54.341Z,11.93
2022-10-28T20:01:56.779Z,11.78
2022-10-28T20:04:59.226Z,11.79
2022-10-28T20:08:01.816Z,11.74
2022-10-28T20:11:06.919Z,11.71
2022-10-28T20:14:12.383Z,11.72
2022-10-28T20:17:15.447Z,11.59
2022-10-28T20:20:18.212Z,11.50
2022-10-28T20:23:20.629Z,11.60
2022-10-28T20:26:28.247Z,11.57
2022-10-28T20:29:31.202Z,11.76
2022-10-28T20:32:34.861Z,11.76
2022-10-28T20:35:38.550Z,11.72
2022-10-28T20:38:41.647Z,11.68
2022-10-28T20:41:45.927Z,11.82
2022-10-28T20:44:48.281Z,11.90
2022-10-28T20:47:52.783Z,11.86
2022-10-28T20:50:57.066Z,11.95
2022-10-28T20:53:59.717Z,11.93
2022-10-28T20:57:02.115Z,11.82
2022-10-28T21:00:06.375Z,11.81
2022-10-28T21:03:11.649Z,11.71
2022-10-28T21:06:15.632Z,11.80
2022-10-28T21:09:18.240Z,11.66
2022-10-28T21:12:20.575Z,11.72
2022-10-28T21:15:22.991Z,11.88
2022-10-28T21:18:25.619Z,11.80
2022-10-28T21:21:31.877Z,11.80
2022-10-28T21:24:34.275Z,11.63
2022-10-28T21:27:36.619Z,11.67
2022-10-28T21:30:39.001Z,11.64
2022-10-28T21:33:42.414Z,11.70
2022-10-28T21:36:44.889Z,11.50
2022-10-28T21:39:55.069Z,11.63
2022-10-28T21:42:59.555Z,11.60
2022-10-28T21:46:02.108Z,11.61
2022-10-28T21:49:05.379Z,11.68
2022-10-28T21:52:08.704Z,11.64
2022-10-28T21:55:20.477Z,11.89
2022-10-28T21:58:36.332Z,11.86
2022-10-28T22:01:38.785Z,11.71
2022-10-28T22:04:41.258Z,11.58
2022-10-28T22:07:43.693Z,11.62
2022-10-28T22:10:46.112Z,11.68
2022-10-28T22:13:55.637Z,11.64
2022-10-28T22:16:57.995Z,11.60
2022-10-28T22:20:00.450Z,11.68
2022-10-28T22:23:02.959Z,11.55
2022-10-28T22:26:07.330Z,11.43
2022-10-28T22:29:09.731Z,11.51
2022-10-28T22:32:12.074Z,11.54
2022-10-28T22:35:14.525Z,11.66
2022-10-28T22:38:16.873Z,11.68
2022-10-28T22:41:30.384Z,11.58
2022-10-28T22:44:32.711Z,11.55
2022-10-28T22:47:35.150Z,11.67
2022-10-28T22:50:37.606Z,11.55
2022-10-28T22:53:40.654Z,11.70
2022-10-28T22:56:45.868Z,11.55
2022-10-28T22:59:48.873Z,11.59
2022-10-28T23:02:51.300Z,11.63
2022-10-28T23:05:54.985Z,11.54
2022-10-28T23:08:58.979Z,11.54
2022-10-28T23:12:01.858Z,11.45
2022-10-28T23:15:05.363Z,11.52
2022-10-28T23:18:08.292Z,11.45
2022-10-28T23:21:12.623Z,11.45
2022-10-28T23:24:15.023Z,11.40
2022-10-28T23:27:17.463Z,11.44
2022-10-28T23:30:19.880Z,11.49
2022-10-28T23:33:22.312Z,11.59
2022-10-28T23:36:25.888Z,11.52
2022-10-28T23:39:30.957Z,11.48
2022-10-28T23:42:33.717Z,11.57
2022-10-28T23:45:36.018Z,11.41
2022-10-28T23:48:38.558Z,11.44
2022-10-28T23:51:40.974Z,11.41
2022-10-28T23:54:43.341Z,11.48
2022-10-28T23:57:45.719Z,11.53
